EGPD/ABZ METAR and TAF weather

Enter ICAO airport designator
Station Type Date Time Source
EGPD METAR 2018/12/10 17:50 UTC NOAA

EGPD 101750Z AUTO VRB01KT 9999 NCD M00/M02 Q1026 NOSIG


Station Type Date Time Source
EGPD Decoded METAR 2018/12/10 17:50 UTC NOAA

Aberdeen / Dyce, United Kingdom (EGPD) 57-12N 002-13W 0M
Dec 10, 2018 - 12:50 PM EST / 2018.12.10 1750 UTC
Wind: Variable at 1 MPH (1 KT):0
Visibility: greater than 7 mile(s):0
Temperature: 32 F (0 C)
Dew Point: 28 F (-2 C)
Relative Humidity: 86%
Pressure (altimeter): 30.30 in. Hg (1026 hPa)
ob: EGPD 101750Z AUTO VRB01KT 9999 NCD M00/M02 Q1026 NOSIG
cycle: 18

Station Type Date Time Source
EGPD TAF 2018/12/10 18:09 UTC NOAA

TAF EGPD 101703Z 1018/1118 28005KT 9999 FEW035
BECMG 1107/1110 17010KT
TEMPO 1115/1118 BKN012


Example: see airport list